Fort Lauderdale, FL

2:00 AM EDT on September 28, 2016 (GMT -0400)
@ICW between Sunrise and Oakland Park Bridges | | Change Station

Elev 8 ft 26.16 °N, 80.11 °W | Updated 7 seconds ago

Clear
Clear
73.7 °F
Feels Like 71 °F
N
1.6
Wind Variable Wind from WSW
Gusts 2.0 mph

Today
High -- | Low -- °F
--% Chance of Precip.
Yesterday
High -- | Low -- °F
Precip. -- in
Pressure 29.99 in
Visibility 10.0 miles
Clouds Clear
Heat Index 71 °F
Dew Point 71.0 °F
Humidity 92%
Rainfall 0.00 in
Snow Depth Not available.
7:11 AM 7:09 PM
Waning Crescent, 7% visible
METAR KFXE 280553Z AUTO 00000KT 10SM CLR 23/20 A2998 RMK AO2 SLP153 T02280200 10233 20222 58006
Pressure 29.99 in
Visibility 10.0 miles
Clouds Clear
Heat Index 71 °F
Dew Point 71.0 °F
Humidity 92%
Rainfall 0.00 in
Snow Depth Not available.
7:11 AM 7:09 PM
Waning Crescent, 7% visible
METAR KFXE 280553Z AUTO 00000KT 10SM CLR 23/20 A2998 RMK AO2 SLP153 T02280200 10233 20222 58006

10-Day Weather Forecast

Almanac

Astronomy

Sep. 28, 2016 Rise Set
Actual Time
Civil Twilight
Nautical Twilight
Astronomical Twilight
Moon
Length of Visible Light
Length of Day
Tomorrow will be .
, % of the Moon is Illuminated

Today's Extremes

State Highs State Lows

Community

WunderPhotos

Upload Photos

1,942,213 photos uploaded!

WunderBlog® & News

Nearby

Air Quality

  Air Quality AQ Index Pollutant
Not available.

Snow Depth

Station Depth Elevation

Earthquake Activity

City Distance Mag. Time & Date
Minimum magnitude displayed is 2.5.

Coastal Water Temperatures

Place Temperature

Stations

Nearby Weather Stations

Station Location Temp. Windchill Dew Point Humidity Wind Precip. Elev Updated Type
                   

Watches & Warnings

There are currently no watches in effect.